Time;durP1;ratioP1;P1;durP2;ratioP2;P2;SDS_P1;SDS_P2;PMS_P1;PMS_P2;Temp;Humidity;BMP_temperature;BMP_pressure;BME280_temperature;BME280_humidity;BME280_pressure;Samples;Min_cycle;Max_cycle;Signal;HPM_P1;HPM_P2
2023/09/01 00:00:33;;;;;;;;;7.80;7.20;;;;;19.08;100.00;98692.75;6275542;27;96620;-63
2023/09/01 00:03:54;;;;;;;;;8.80;8.80;;;;;19.18;100.00;98708.28;6310403;27;96272;-63
2023/09/01 00:06:57;;;;;;;;;10.00;9.00;;;;;19.20;100.00;98714.28;6317010;27;96250;-63
2023/09/01 00:10:00;;;;;;;;;8.00;8.00;;;;;19.24;100.00;98715.34;6316641;27;96303;-63
2023/09/01 00:13:05;;;;;;;;;9.00;8.00;;;;;19.27;100.00;98707.41;6313274;27;96313;-63
2023/09/01 00:16:09;;;;;;;;;8.00;8.00;;;;;19.36;100.00;98707.59;6310085;27;96448;-62
2023/09/01 00:19:12;;;;;;;;;10.00;9.00;;;;;19.36;100.00;98715.81;6310440;27;96341;-63
2023/09/01 00:22:15;;;;;;;;;8.50;8.00;;;;;19.30;100.00;98711.50;6312827;27;96349;-63
2023/09/01 00:25:18;;;;;;;;;9.00;9.00;;;;;19.31;100.00;98707.63;6315622;27;96142;-64
2023/09/01 00:28:24;;;;;;;;;9.67;9.67;;;;;19.35;100.00;98719.66;6313548;27;96672;-62
2023/09/01 00:31:27;;;;;;;;;10.00;8.00;;;;;19.33;100.00;98722.66;6315530;27;96415;-62
2023/09/01 00:34:32;;;;;;;;;10.00;10.00;;;;;19.38;100.00;98717.19;6298021;27;96374;-63
2023/09/01 00:37:35;;;;;;;;;10.60;9.60;;;;;19.40;100.00;98709.50;6297451;27;96353;-63
2023/09/01 00:40:38;;;;;;;;;8.00;8.00;;;;;19.42;100.00;98699.09;6288385;27;98455;-63
2023/09/01 00:43:43;;;;;;;;;6.60;6.60;;;;;19.43;100.00;98698.00;6282930;27;96362;-63
2023/09/01 00:46:46;;;;;;;;;10.00;10.00;;;;;19.32;100.00;98684.69;6313504;27;96358;-63
2023/09/01 00:49:49;;;;;;;;;12.00;11.00;;;;;19.44;100.00;98702.41;6297445;27;96334;-62
2023/09/01 00:52:53;;;;;;;;;10.00;10.00;;;;;19.48;100.00;98696.38;6312953;27;96408;-63
2023/09/01 00:55:58;;;;;;;;;8.00;8.00;;;;;19.50;100.00;98700.44;6315594;27;96842;-63
2023/09/01 00:59:02;;;;;;;;;8.50;8.50;;;;;19.50;100.00;98700.44;6315516;27;96533;-63
2023/09/01 01:02:06;;;;;;;;;7.00;7.00;;;;;19.49;100.00;98701.56;6293348;27;96678;-62
2023/09/01 01:05:15;;;;;;;;;8.60;8.00;;;;;19.50;100.00;98708.63;6295181;27;96358;-63
2023/09/01 01:08:32;;;;;;;;;9.60;9.00;;;;;19.50;100.00;98714.09;6295618;27;96463;-63
2023/09/01 01:11:45;;;;;;;;;9.00;9.00;;;;;19.50;100.00;98705.91;6295037;27;96923;-63
2023/09/01 01:14:53;;;;;;;;;8.00;8.00;;;;;19.46;100.00;98710.31;6274993;27;96820;-63
2023/09/01 01:17:58;;;;;;;;;9.40;9.00;;;;;19.42;100.00;98715.50;6313067;27;96348;-63
2023/09/01 01:21:07;;;;;;;;;12.00;11.60;;;;;19.36;100.00;98713.06;6294888;27;97067;-62
2023/09/01 01:24:13;;;;;;;;;10.00;9.60;;;;;19.35;100.00;98716.94;6294332;27;96748;-62
2023/09/01 01:27:18;;;;;;;;;9.00;9.00;;;;;19.34;100.00;98721.59;6313851;27;96248;-63
2023/09/01 01:30:21;;;;;;;;;7.00;7.00;;;;;19.33;100.00;98727.31;6295974;27;96324;-62
2023/09/01 01:33:42;;;;;;;;;8.50;7.50;;;;;19.34;100.00;98739.91;6295749;27;98375;-62
2023/09/01 01:36:50;;;;;;;;;9.80;9.80;;;;;19.19;100.00;98718.09;6312823;27;96346;-62
2023/09/01 01:39:56;;;;;;;;;9.25;9.25;;;;;19.23;100.00;98725.47;6293954;27;96904;-63
2023/09/01 01:43:03;;;;;;;;;6.00;5.40;;;;;19.16;100.00;98735.06;6295238;27;98371;-63
2023/09/01 01:46:07;;;;;;;;;9.40;9.00;;;;;19.11;100.00;98732.38;6294651;27;96743;-62
2023/09/01 01:49:10;;;;;;;;;9.00;9.00;;;;;19.00;100.00;98723.41;6313669;27;96842;-62
2023/09/01 01:52:13;;;;;;;;;8.00;8.00;;;;;18.98;100.00;98720.94;6312807;27;96335;-62
2023/09/01 01:55:19;;;;;;;;;8.00;8.00;;;;;18.92;100.00;98719.31;6295354;27;96360;-63
2023/09/01 01:58:22;;;;;;;;;10.40;10.40;;;;;18.85;100.00;98716.09;6310853;27;96317;-62
2023/09/01 02:01:26;;;;;;;;;9.40;8.40;;;;;18.85;100.00;98713.34;6313505;27;96322;-63
2023/09/01 02:04:29;;;;;;;;;7.00;6.75;;;;;18.88;100.00;98728.34;6296182;27;96240;-62
2023/09/01 02:07:32;;;;;;;;;7.25;7.25;;;;;18.83;100.00;98726.47;6293691;27;96325;-63
2023/09/01 02:10:37;;;;;;;;;8.80;8.00;;;;;18.81;100.00;98725.13;6293781;27;98820;-63
2023/09/01 02:13:40;;;;;;;;;7.75;7.75;;;;;18.79;100.00;98728.13;6294763;27;98664;-63
2023/09/01 02:16:43;;;;;;;;;9.40;9.00;;;;;18.78;100.00;98737.41;6313523;27;96240;-63
2023/09/01 02:19:46;;;;;;;;;8.00;8.00;;;;;18.77;100.00;98737.69;6313217;27;96311;-63
2023/09/01 02:22:50;;;;;;;;;9.50;8.50;;;;;18.74;100.00;98735.50;6295783;27;99195;-63
2023/09/01 02:25:56;;;;;;;;;9.40;8.00;;;;;18.72;100.00;98734.97;6313004;27;96342;-63
2023/09/01 02:28:59;;;;;;;;;8.00;8.00;;;;;18.68;100.00;98731.16;6295446;27;96666;-63
2023/09/01 02:32:03;;;;;;;;;9.00;8.00;;;;;18.65;100.00;98729.00;6309434;27;96369;-63
2023/09/01 02:35:08;;;;;;;;;6.00;6.00;;;;;18.64;100.00;98728.16;6311946;27;97027;-63
2023/09/01 02:38:11;;;;;;;;;7.00;7.00;;;;;18.59;100.00;98722.72;6310726;27;96396;-62
2023/09/01 02:41:17;;;;;;;;;7.00;7.00;;;;;18.60;100.00;98722.47;6293931;27;96699;-63
2023/09/01 02:44:20;;;;;;;;;8.25;8.00;;;;;18.59;100.00;98730.91;6276475;27;98450;-63
2023/09/01 02:47:24;;;;;;;;;6.00;6.00;;;;;18.57;100.00;98719.44;6290850;27;96306;-63
2023/09/01 02:50:27;;;;;;;;;5.40;5.40;;;;;18.62;100.00;98716.69;6310436;27;96825;-63
2023/09/01 02:53:30;;;;;;;;;9.00;9.00;;;;;18.60;100.00;98717.00;6308584;27;96384;-63
2023/09/01 02:56:35;;;;;;;;;7.00;7.00;;;;;18.64;100.00;98722.72;6273990;27;99168;-63
2023/09/01 02:59:38;;;;;;;;;7.00;7.00;;;;;18.67;100.00;98718.63;6290309;27;98432;-63
2023/09/01 03:02:43;;;;;;;;;7.40;7.00;;;;;18.68;100.00;98725.69;6302840;27;96392;-63
2023/09/01 03:05:48;;;;;;;;;7.00;7.00;;;;;18.63;100.00;98733.91;6307753;27;96378;-63
2023/09/01 03:08:51;;;;;;;;;8.20;7.20;;;;;18.54;100.00;98730.94;6270802;27;96239;-63
2023/09/01 03:11:56;;;;;;;;;7.00;7.00;;;;;18.44;100.00;98723.53;6284329;27;96651;-63
2023/09/01 03:14:59;;;;;;;;;5.33;5.33;;;;;18.47;100.00;98731.16;6248788;27;97735;-63
2023/09/01 03:18:03;;;;;;;;;8.40;7.00;;;;;18.39;100.00;98726.28;6282013;27;98794;-63
2023/09/01 03:21:11;;;;;;;;;8.00;8.00;;;;;18.35;100.00;98716.19;6266497;27;96257;-63
2023/09/01 03:24:14;;;;;;;;;6.40;6.40;;;;;18.34;100.00;98729.03;6265331;27;97045;-62
2023/09/01 03:27:18;;;;;;;;;7.00;7.00;;;;;18.33;100.00;98732.84;6276482;27;96462;-63
2023/09/01 03:30:22;;;;;;;;;7.40;7.40;;;;;18.31;100.00;98736.97;6272839;27;96989;-63
2023/09/01 03:33:27;;;;;;;;;6.40;6.00;;;;;18.30;100.00;98736.13;6264070;27;96992;-64
2023/09/01 03:36:30;;;;;;;;;9.00;9.00;;;;;18.30;100.00;98744.31;6274173;27;98428;-63
2023/09/01 03:39:33;;;;;;;;;9.00;9.00;;;;;18.31;100.00;98737.78;6271482;27;96804;-63
2023/09/01 03:42:40;;;;;;;;;9.00;8.00;;;;;18.32;100.00;98738.59;6262330;27;98656;-63
2023/09/01 03:45:44;;;;;;;;;6.60;6.60;;;;;18.31;100.00;98745.97;6278804;27;96355;-63
2023/09/01 03:48:48;;;;;;;;;9.60;9.00;;;;;18.30;100.00;98748.97;6288493;27;99036;-63
2023/09/01 03:51:51;;;;;;;;;5.50;4.50;;;;;18.26;100.00;98742.41;6290263;27;96418;-63
2023/09/01 03:54:54;;;;;;;;;6.00;6.00;;;;;18.25;100.00;98751.69;6275375;27;99112;-63
2023/09/01 03:57:59;;;;;;;;;8.00;7.00;;;;;18.22;100.00;98754.97;6285794;27;96582;-63
2023/09/01 04:01:08;;;;;;;;;8.00;8.00;;;;;18.21;100.00;98756.06;6270479;27;96931;-64
2023/09/01 04:04:12;;;;;;;;;8.00;8.00;;;;;18.17;100.00;98753.91;6261224;27;96281;-64
2023/09/01 04:07:15;;;;;;;;;6.00;6.00;;;;;18.14;100.00;98748.16;6281361;27;96405;-63
2023/09/01 04:10:18;;;;;;;;;8.00;8.00;;;;;18.12;100.00;98756.63;6261247;27;99005;-63
2023/09/01 04:13:23;;;;;;;;;10.00;10.00;;;;;18.08;100.00;98755.50;6281494;27;96273;-63
2023/09/01 04:16:26;;;;;;;;;7.00;5.40;;;;;18.05;100.00;98749.78;6241215;27;96725;-64
2023/09/01 04:19:29;;;;;;;;;5.00;5.00;;;;;18.06;100.00;98755.00;6273872;27;96907;-64
2023/09/01 04:22:33;;;;;;;;;6.00;6.00;;;;;17.97;100.00;98756.63;6254993;27;96480;-64
2023/09/01 04:25:36;;;;;;;;;7.00;7.00;;;;;17.94;100.00;98756.34;6253083;27;97006;-64
2023/09/01 04:28:41;;;;;;;;;8.00;8.00;;;;;17.82;100.00;98744.88;6269789;27;96524;-64
2023/09/01 04:31:44;;;;;;;;;8.00;8.00;;;;;17.85;100.00;98747.06;6254326;27;96965;-64
2023/09/01 04:34:47;;;;;;;;;9.00;8.00;;;;;17.87;100.00;98753.06;6226359;28;97421;-64
2023/09/01 04:37:51;;;;;;;;;6.00;6.00;;;;;17.92;100.00;98762.09;6267369;27;97247;-64
2023/09/01 04:40:56;;;;;;;;;7.40;7.00;;;;;17.99;100.00;98759.06;6254142;27;96904;-64
2023/09/01 04:44:01;;;;;;;;;6.50;6.50;;;;;18.04;100.00;98765.34;6252955;27;96668;-64
2023/09/01 04:47:05;;;;;;;;;9.00;8.00;;;;;18.13;100.00;98766.44;6253616;27;96202;-64
2023/09/01 04:50:09;;;;;;;;;7.00;6.60;;;;;18.26;100.00;98778.72;6236231;27;98462;-64
2023/09/01 04:53:12;;;;;;;;;7.00;6.00;;;;;18.39;100.00;98775.41;6272905;27;96446;-64
2023/09/01 04:56:15;;;;;;;;;7.00;7.00;;;;;18.49;100.00;98780.03;6258102;27;96558;-65
2023/09/01 04:59:19;;;;;;;;;7.00;7.00;;;;;18.62;100.00;98774.03;6277065;27;97156;-64
2023/09/01 05:02:23;;;;;;;;;4.50;4.25;;;;;18.76;100.00;98782.50;6273918;27;96397;-65
2023/09/01 05:05:26;;;;;;;;;6.00;6.00;;;;;18.79;100.00;98785.47;6292161;27;96259;-64
2023/09/01 05:08:29;;;;;;;;;10.00;10.00;;;;;18.82;100.00;98786.81;6258318;27;96590;-64
2023/09/01 05:11:32;;;;;;;;;8.00;8.00;;;;;18.82;100.00;98784.91;6258463;27;97520;-64
2023/09/01 05:14:37;;;;;;;;;7.00;7.00;;;;;18.81;100.00;98786.03;6259401;27;96356;-64
2023/09/01 05:17:40;;;;;;;;;9.00;9.00;;;;;18.87;100.00;98793.09;6292635;27;96266;-64
2023/09/01 05:20:47;;;;;;;;;6.40;6.40;;;;;18.93;100.00;98780.25;6260046;27;96378;-64
2023/09/01 05:23:50;;;;;;;;;6.80;5.00;;;;;18.99;100.00;98790.06;6259240;27;96836;-64
2023/09/01 05:26:54;;;;;;;;;7.00;7.00;;;;;19.12;100.00;98784.00;6278190;27;96301;-64
2023/09/01 05:29:58;;;;;;;;;7.00;6.40;;;;;19.20;100.00;98780.69;6260081;27;96396;-64
2023/09/01 05:33:02;;;;;;;;;5.00;5.00;;;;;19.31;100.00;98784.16;6260399;27;96349;-64
2023/09/01 05:36:05;;;;;;;;;9.00;9.00;;;;;19.36;100.00;98779.50;6275755;27;96244;-64
2023/09/01 05:39:09;;;;;;;;;9.00;9.00;;;;;19.37;100.00;98780.31;6259453;27;96409;-64
2023/09/01 05:42:14;;;;;;;;;6.33;6.33;;;;;19.44;100.00;98781.69;6259182;27;97042;-65
2023/09/01 05:45:19;;;;;;;;;6.00;6.00;;;;;19.49;100.00;98775.38;6256331;27;97038;-64
2023/09/01 05:48:22;;;;;;;;;5.67;4.00;;;;;19.68;100.00;98800.16;6255202;27;96637;-64
2023/09/01 05:51:26;;;;;;;;;8.00;6.60;;;;;19.87;100.00;98792.91;6272433;27;96939;-64
2023/09/01 05:54:30;;;;;;;;;7.00;7.00;;;;;20.09;100.00;98792.47;6256034;27;96450;-64
2023/09/01 05:57:34;;;;;;;;;6.00;5.00;;;;;20.15;100.00;98807.75;6253913;27;98554;-64
2023/09/01 06:00:38;;;;;;;;;7.20;7.00;;;;;20.30;100.00;98803.00;6276731;27;96779;-64
2023/09/01 06:03:42;;;;;;;;;5.80;5.20;;;;;20.47;100.00;98813.53;6252371;27;99332;-64
2023/09/01 06:06:45;;;;;;;;;4.80;3.80;;;;;20.61;100.00;98819.97;6287438;27;98424;-64
2023/09/01 06:09:48;;;;;;;;;7.00;6.00;;;;;20.70;100.00;98820.97;6309217;27;96262;-64
2023/09/01 06:12:51;;;;;;;;;8.00;8.00;;;;;20.93;100.00;98819.38;6307950;27;96765;-64
2023/09/01 06:15:56;;;;;;;;;5.00;5.00;;;;;21.09;100.00;98826.31;6307713;27;96405;-64
2023/09/01 06:19:00;;;;;;;;;5.25;4.75;;;;;21.26;100.00;98823.13;6287985;27;96819;-64
2023/09/01 06:22:04;;;;;;;;;6.00;5.25;;;;;21.36;100.00;98823.00;6286951;27;97725;-63
2023/09/01 06:25:08;;;;;;;;;6.75;6.00;;;;;21.58;100.00;98806.81;6308864;27;96354;-64
2023/09/01 06:28:11;;;;;;;;;4.00;4.00;;;;;21.94;100.00;98823.59;6292504;27;98833;-64
2023/09/01 06:31:17;;;;;;;;;5.00;5.00;;;;;22.15;100.00;98826.84;6306739;27;96739;-64
2023/09/01 06:34:20;;;;;;;;;6.00;6.00;;;;;22.13;100.00;98831.03;6277369;27;97144;-63
2023/09/01 06:37:23;;;;;;;;;5.00;5.00;;;;;22.30;100.00;98834.03;6305423;27;96323;-63
2023/09/01 06:40:26;;;;;;;;;6.00;4.80;;;;;22.42;100.00;98829.72;6274445;27;98418;-64
2023/09/01 06:43:30;;;;;;;;;4.00;3.20;;;;;22.65;100.00;98825.19;6311644;27;96892;-64
2023/09/01 06:46:34;;;;;;;;;5.00;5.00;;;;;22.85;100.00;98832.28;6309739;27;96288;-64
2023/09/01 06:49:38;;;;;;;;;5.00;5.00;;;;;23.09;100.00;98838.44;6309280;27;96832;-63
2023/09/01 06:52:41;;;;;;;;;7.00;5.60;;;;;23.25;100.00;98839.78;6289103;27;96564;-64
2023/09/01 06:55:45;;;;;;;;;4.00;4.00;;;;;23.55;100.00;98843.03;6307029;27;96303;-63
2023/09/01 06:58:49;;;;;;;;;5.60;5.60;;;;;23.82;100.00;98839.41;6290314;27;98318;-64
2023/09/01 07:01:54;;;;;;;;;5.00;5.00;;;;;24.01;100.00;98837.31;6265392;27;98600;-63
2023/09/01 07:04:58;;;;;;;;;6.00;5.40;;;;;24.14;100.00;98830.97;6266698;27;96416;-64
2023/09/01 07:08:02;;;;;;;;;4.00;3.60;;;;;24.23;100.00;98831.06;6265623;27;98817;-64
2023/09/01 07:11:09;;;;;;;;;4.60;4.40;;;;;24.59;100.00;98829.03;6277887;27;96490;-64
2023/09/01 07:14:12;;;;;;;;;5.00;5.00;;;;;24.74;100.00;98834.16;6265022;27;97122;-64
2023/09/01 07:17:21;;;;;;;;;5.50;5.00;;;;;24.91;100.00;98834.31;6237743;27;98398;-64
2023/09/01 07:20:24;;;;;;;;;4.60;4.00;;;;;25.01;100.00;98839.53;6267161;27;96346;-64
2023/09/01 07:23:27;;;;;;;;;5.60;5.60;;;;;25.12;100.00;98842.03;6267889;27;96366;-64
2023/09/01 07:26:33;;;;;;;;;4.00;4.00;;;;;24.95;100.00;98799.44;6240527;28;96853;-63
2023/09/01 07:29:36;;;;;;;;;4.00;4.00;;;;;25.26;100.00;98832.50;6246271;27;98966;-63
2023/09/01 07:32:41;;;;;;;;;6.50;6.00;;;;;25.30;100.00;98836.25;6245078;27;98493;-63
2023/09/01 07:35:48;;;;;;;;;6.00;6.00;;;;;25.24;100.00;98839.47;6257662;27;98776;-64
2023/09/01 07:38:51;;;;;;;;;5.60;5.60;;;;;25.31;100.00;98845.34;6267253;27;96391;-63
2023/09/01 07:41:54;;;;;;;;;6.00;6.00;;;;;25.46;100.00;98839.41;6260940;27;96423;-64
2023/09/01 07:45:00;;;;;;;;;5.00;4.60;;;;;25.69;100.00;98843.69;6260027;27;96684;-64
2023/09/01 07:48:06;;;;;;;;;4.20;4.00;;;;;25.94;100.00;98841.31;6279537;27;96295;-64
2023/09/01 07:51:23;;;;;;;;;6.20;6.00;;;;;26.18;100.00;98842.44;6264425;27;96271;-63
2023/09/01 07:54:27;;;;;;;;;4.20;4.00;;;;;26.38;100.00;98848.50;6263698;27;96421;-64
2023/09/01 07:57:30;;;;;;;;;4.50;4.50;;;;;26.47;100.00;98854.81;6282239;27;96351;-64
2023/09/01 08:00:35;;;;;;;;;6.00;6.00;;;;;26.83;100.00;98851.69;6279322;27;96403;-63
2023/09/01 08:03:39;;;;;;;;;5.50;5.50;;;;;27.06;99.16;98844.81;6261680;27;96809;-63
2023/09/01 08:06:43;;;;;;;;;4.75;4.00;;;;;27.08;100.00;98842.50;6280729;27;96265;-64
2023/09/01 08:09:47;;;;;;;;;7.00;7.00;;;;;27.07;96.21;98846.44;6278142;27;96494;-63
2023/09/01 08:12:50;;;;;;;;;5.40;5.40;;;;;27.10;96.33;98845.75;6274279;27;96423;-63
2023/09/01 08:15:53;;;;;;;;;4.00;4.00;;;;;27.07;92.77;98836.16;6258075;27;96353;-63
2023/09/01 08:18:59;;;;;;;;;4.00;4.00;;;;;27.56;96.15;98839.41;6274638;27;96330;-63
2023/09/01 08:22:03;;;;;;;;;3.75;3.75;;;;;27.87;90.74;98848.16;6241777;27;98608;-63
2023/09/01 08:25:09;;;;;;;;;5.00;5.00;;;;;28.10;83.94;98848.63;6282362;27;96429;-64
2023/09/01 08:28:12;;;;;;;;;5.00;5.00;;;;;28.37;76.86;98859.22;6288685;27;96451;-63
2023/09/01 08:31:15;;;;;;;;;3.50;3.50;;;;;28.75;78.08;98847.94;6285985;27;96276;-63
2023/09/01 08:34:21;;;;;;;;;7.00;6.00;;;;;29.15;77.63;98841.78;6276002;27;97921;-64
2023/09/01 08:37:24;;;;;;;;;7.00;7.00;;;;;29.11;71.98;98851.97;6260394;28;96911;-64
2023/09/01 08:40:28;;;;;;;;;7.00;7.00;;;;;29.34;68.07;98833.72;6246290;28;98380;-63
2023/09/01 08:43:34;;;;;;;;;6.00;5.75;;;;;29.79;70.60;98838.34;6248896;27;96877;-64
2023/09/01 08:46:38;;;;;;;;;5.00;5.00;;;;;30.13;67.35;98848.97;6281831;27;96316;-64
2023/09/01 08:49:43;;;;;;;;;5.60;5.60;;;;;29.39;60.79;98860.47;6264405;27;97021;-64
2023/09/01 08:52:48;;;;;;;;;5.00;5.00;;;;;29.42;69.05;98855.00;6249742;27;97213;-63
2023/09/01 08:55:51;;;;;;;;;9.67;9.00;;;;;29.28;69.33;98852.53;6282161;27;96343;-64
2023/09/01 08:58:55;;;;;;;;;7.60;6.60;;;;;29.29;71.01;98853.38;6284117;27;96340;-64
2023/09/01 09:01:59;;;;;;;;;6.00;6.00;;;;;29.35;68.83;98842.88;6284985;27;97606;-64
2023/09/01 09:05:05;;;;;;;;;6.40;6.40;;;;;29.72;67.60;98847.25;6246336;27;96947;-63
2023/09/01 09:08:09;;;;;;;;;5.50;5.50;;;;;30.07;69.61;98856.72;6279881;27;97659;-63
2023/09/01 09:11:13;;;;;;;;;6.00;6.00;;;;;29.89;61.49;98863.72;6266648;27;96763;-63
2023/09/01 09:14:17;;;;;;;;;7.80;7.80;;;;;29.70;61.53;98875.41;6264300;27;96581;-63
2023/09/01 09:17:21;;;;;;;;;6.00;5.75;;;;;29.31;65.76;98870.53;6264225;27;96654;-63
2023/09/01 09:20:37;;;;;;;;;7.00;6.60;;;;;29.24;69.34;98861.91;6246901;28;96597;-63
2023/09/01 09:23:46;;;;;;;;;4.20;3.80;;;;;28.98;69.23;98873.31;6268769;27;96739;-63
2023/09/01 09:26:56;;;;;;;;;6.40;6.00;;;;;28.79;72.67;98870.25;6278847;27;96598;-62
2023/09/01 09:29:59;;;;;;;;;6.33;6.00;;;;;28.53;70.03;98870.50;6286935;27;97488;-62
2023/09/01 09:33:04;;;;;;;;;5.00;5.00;;;;;28.47;70.01;98860.75;6285885;27;97313;-63
2023/09/01 09:36:09;;;;;;;;;6.00;5.00;;;;;28.26;67.13;98866.31;6283478;27;97401;-63
2023/09/01 09:39:22;;;;;;;;;5.00;5.00;;;;;28.57;70.32;98865.06;6250989;28;96706;-63
2023/09/01 09:42:37;;;;;;;;;5.40;5.40;;;;;28.55;73.98;98859.84;6281153;27;96451;-63
2023/09/01 09:45:40;;;;;;;;;4.80;4.80;;;;;28.50;68.94;98875.88;6266112;27;96920;-63
2023/09/01 09:48:43;;;;;;;;;5.00;5.00;;;;;28.66;71.32;98872.16;6263806;27;96951;-63
2023/09/01 09:51:51;;;;;;;;;4.40;4.40;;;;;28.79;65.07;98867.47;6265568;27;98502;-63
2023/09/01 09:54:59;;;;;;;;;4.60;4.60;;;;;29.68;67.48;98874.94;6276375;27;97295;-63
2023/09/01 09:58:05;;;;;;;;;6.00;5.40;;;;;30.17;57.74;98874.91;6275484;27;97447;-63
2023/09/01 10:01:20;;;;;;;;;3.00;2.60;;;;;30.01;59.66;98869.25;6284893;27;97130;-63
2023/09/01 10:04:24;;;;;;;;;5.00;4.40;;;;;29.92;58.46;98870.53;6289416;27;96735;-63
2023/09/01 10:07:28;;;;;;;;;4.80;4.80;;;;;29.94;57.99;98866.25;6284400;27;99251;-63
2023/09/01 10:10:34;;;;;;;;;4.00;3.40;;;;;29.98;62.74;98861.63;6277714;27;96339;-63
2023/09/01 10:13:37;;;;;;;;;5.40;5.00;;;;;30.27;60.12;98854.13;6261525;27;99253;-63
2023/09/01 10:16:43;;;;;;;;;7.60;7.00;;;;;30.97;59.18;98861.72;6266134;27;96258;-63
2023/09/01 10:19:47;;;;;;;;;5.00;4.75;;;;;31.46;59.92;98858.63;6286898;27;96212;-64
2023/09/01 10:22:52;;;;;;;;;2.75;2.75;;;;;31.58;56.15;98864.13;6263934;27;96520;-64
2023/09/01 10:26:14;;;;;;;;;6.00;5.60;;;;;31.66;54.92;98865.94;6289366;27;96307;-63
2023/09/01 10:29:31;;;;;;;;;6.40;6.40;;;;;31.55;54.00;98864.84;6250410;28;96804;-63
2023/09/01 10:32:34;;;;;;;;;5.00;5.00;;;;;30.97;57.53;98874.84;6263025;27;96865;-63
2023/09/01 10:35:42;;;;;;;;;5.00;4.00;;;;;31.02;60.76;98860.69;6286794;27;96606;-63
2023/09/01 10:38:47;;;;;;;;;5.00;4.00;;;;;31.01;60.88;98867.38;6284436;27;96470;-63
2023/09/01 10:41:57;;;;;;;;;3.00;3.00;;;;;30.73;59.53;98867.44;6292066;27;96184;-63
2023/09/01 10:45:12;;;;;;;;;4.00;3.00;;;;;30.30;61.04;98867.34;6272889;27;96627;-63
2023/09/01 10:48:48;;;;;;;;;5.25;5.25;;;;;29.74;60.60;98869.13;6267525;27;96679;-63
2023/09/01 10:52:12;;;;;;;;;6.40;5.00;;;;;29.22;65.05;98859.47;6277657;27;96195;-63
2023/09/01 10:55:16;;;;;;;;;6.00;4.50;;;;;29.46;70.82;98869.84;6261551;27;97159;-64
2023/09/01 10:58:20;;;;;;;;;4.50;4.50;;;;;29.72;65.60;98866.69;6288176;27;96368;-64
2023/09/01 11:01:37;;;;;;;;;7.00;7.00;;;;;29.69;61.74;98868.22;6269344;27;98575;-64
2023/09/01 11:04:41;;;;;;;;;5.00;4.00;;;;;29.63;62.61;98855.72;6262069;27;96846;-64
2023/09/01 11:08:12;;;;;;;;;4.40;4.00;;;;;30.15;62.09;98851.41;6285561;27;96343;-64
2023/09/01 11:11:17;;;;;;;;;4.00;3.40;;;;;30.64;64.77;98844.53;6273592;27;96722;-64
2023/09/01 11:14:21;;;;;;;;;3.80;3.80;;;;;31.06;61.52;98844.06;6253586;27;96730;-64
2023/09/01 11:17:38;;;;;;;;;4.00;4.00;;;;;31.28;58.32;98857.34;6267976;27;96295;-64
2023/09/01 11:20:42;;;;;;;;;6.00;5.00;;;;;30.86;57.89;98860.63;6263277;27;96083;-64
2023/09/01 11:23:45;;;;;;;;;4.00;4.00;;;;;30.26;60.79;98850.53;6254940;27;97086;-65
2023/09/01 11:26:50;;;;;;;;;5.00;5.00;;;;;29.80;65.91;98846.34;6282169;27;97490;-64
2023/09/01 11:29:54;;;;;;;;;4.00;4.00;;;;;29.51;64.82;98854.91;6274480;27;96848;-64
2023/09/01 11:32:57;;;;;;;;;4.40;3.40;;;;;29.22;69.91;98851.16;6281708;27;96284;-63
2023/09/01 11:36:05;;;;;;;;;4.60;4.60;;;;;28.93;72.72;98840.22;6262611;27;97632;-64
2023/09/01 11:39:10;;;;;;;;;6.00;5.40;;;;;28.89;76.13;98850.41;6276737;27;96774;-64
2023/09/01 11:42:14;;;;;;;;;3.00;3.00;;;;;29.04;76.67;98849.75;6283991;27;96906;-64
2023/09/01 11:45:18;;;;;;;;;5.00;5.00;;;;;29.58;69.99;98844.03;6287349;27;96381;-64
2023/09/01 11:48:25;;;;;;;;;4.20;4.20;;;;;30.20;72.43;98845.59;6287563;27;96538;-64
2023/09/01 11:51:31;;;;;;;;;6.00;6.00;;;;;30.52;63.22;98834.25;6256102;27;97047;-64
2023/09/01 11:54:40;;;;;;;;;3.75;3.75;;;;;30.92;60.90;98848.06;6249206;27;96816;-64
2023/09/01 11:57:54;;;;;;;;;5.00;4.75;;;;;31.50;61.25;98840.03;6276275;27;96747;-64
2023/09/01 12:00:57;;;;;;;;;4.00;4.00;;;;;31.48;54.54;98841.53;6264930;27;97213;-64
2023/09/01 12:04:06;;;;;;;;;3.00;3.00;;;;;31.16;55.76;98836.00;6269806;27;96372;-64
2023/09/01 12:07:09;;;;;;;;;5.00;5.00;;;;;31.22;58.24;98828.19;6272471;27;96420;-65
2023/09/01 12:10:22;;;;;;;;;4.80;4.80;;;;;31.17;57.66;98831.25;6288148;27;96271;-64
2023/09/01 12:13:26;;;;;;;;;5.00;4.40;;;;;31.25;55.61;98824.66;6294781;27;96875;-64
2023/09/01 12:16:30;;;;;;;;;4.00;4.00;;;;;31.42;56.85;98833.44;6260736;27;98559;-65
2023/09/01 12:19:45;;;;;;;;;4.00;3.00;;;;;31.38;55.78;98827.00;6295315;27;96248;-64
2023/09/01 12:22:49;;;;;;;;;4.40;4.40;;;;;31.56;55.38;98807.13;6292376;27;97221;-64
2023/09/01 12:25:52;;;;;;;;;3.80;3.80;;;;;31.48;54.17;98817.28;6277634;27;96789;-64
2023/09/01 12:28:57;;;;;;;;;4.60;4.60;;;;;31.62;57.23;98826.00;6297297;27;97402;-64
2023/09/01 12:32:00;;;;;;;;;2.20;2.20;;;;;31.73;57.82;98812.31;6293953;27;96343;-64
2023/09/01 12:35:04;;;;;;;;;3.00;3.00;;;;;31.72;54.54;98816.28;6304130;27;96354;-64
2023/09/01 12:38:07;;;;;;;;;5.00;3.60;;;;;31.27;58.60;98803.66;6273196;27;97507;-64
2023/09/01 12:41:11;;;;;;;;;2.80;2.80;;;;;31.20;57.90;98802.66;6288963;27;96273;-64
2023/09/01 12:44:15;;;;;;;;;3.00;3.00;;;;;31.31;57.76;98800.94;6294078;27;97001;-64
2023/09/01 12:47:18;;;;;;;;;3.00;2.00;;;;;31.41;55.69;98803.19;6274774;27;96649;-64
2023/09/01 12:50:22;;;;;;;;;4.20;4.20;;;;;31.44;56.25;98799.66;6291372;27;96380;-64
2023/09/01 12:53:25;;;;;;;;;3.00;2.00;;;;;31.55;52.97;98806.31;6291516;27;98473;-64
2023/09/01 12:56:29;;;;;;;;;6.00;5.00;;;;;31.46;53.27;98805.69;6276981;27;97245;-64
2023/09/01 12:59:34;;;;;;;;;3.40;3.00;;;;;31.24;57.60;98798.78;6269326;27;98477;-65
2023/09/01 13:02:37;;;;;;;;;5.00;5.00;;;;;30.86;56.13;98793.00;6282261;27;97481;-65
2023/09/01 13:05:41;;;;;;;;;4.00;4.00;;;;;30.90;60.92;98813.38;6272251;27;96897;-64
2023/09/01 13:08:44;;;;;;;;;4.00;3.60;;;;;30.73;61.48;98803.41;6280966;27;96282;-64
2023/09/01 13:11:47;;;;;;;;;5.40;4.60;;;;;30.60;60.90;98809.38;6282467;27;96906;-65
2023/09/01 13:14:52;;;;;;;;;4.50;4.00;;;;;30.59;63.06;98800.25;6263917;27;100049;-64
2023/09/01 13:17:55;;;;;;;;;4.50;4.00;;;;;30.42;62.40;98801.34;6265938;27;96354;-65
2023/09/01 13:20:58;;;;;;;;;5.00;4.00;;;;;30.20;62.70;98801.91;6283252;27;96310;-64
2023/09/01 13:24:01;;;;;;;;;2.00;2.00;;;;;30.04;64.58;98799.06;6285384;27;96251;-65
2023/09/01 13:27:05;;;;;;;;;3.40;3.00;;;;;29.74;66.16;98797.69;6285329;27;96353;-64
2023/09/01 13:30:10;;;;;;;;;4.00;4.00;;;;;29.55;67.63;98806.66;6286545;27;96334;-64
2023/09/01 13:33:13;;;;;;;;;3.00;2.00;;;;;29.07;68.03;98799.09;6226349;28;98490;-65
2023/09/01 13:36:17;;;;;;;;;5.00;4.50;;;;;28.88;68.06;98798.03;6240427;27;96643;-65
2023/09/01 13:39:20;;;;;;;;;3.00;3.00;;;;;28.70;69.97;98805.69;6283455;27;96536;-64
2023/09/01 13:42:24;;;;;;;;;4.00;4.00;;;;;28.33;71.34;98807.53;6250788;27;98454;-65
2023/09/01 13:45:28;;;;;;;;;4.80;4.00;;;;;28.31;70.96;98802.34;6266104;27;98420;-65
2023/09/01 13:48:31;;;;;;;;;2.40;2.40;;;;;28.18;72.45;98799.84;6280621;27;96420;-64
2023/09/01 13:51:34;;;;;;;;;3.00;3.00;;;;;28.16;73.52;98800.19;6263835;27;96834;-64
2023/09/01 13:54:38;;;;;;;;;3.00;3.00;;;;;28.08;74.60;98794.69;6263849;27;98525;-64
2023/09/01 13:57:41;;;;;;;;;5.00;4.00;;;;;27.97;78.68;98805.38;6281281;27;96287;-65
2023/09/01 14:00:46;;;;;;;;;3.00;3.00;;;;;27.93;77.70;98801.66;6280911;27;96687;-65
2023/09/01 14:03:49;;;;;;;;;4.00;4.00;;;;;27.81;79.36;98802.38;6271441;27;96683;-65
2023/09/01 14:06:53;;;;;;;;;3.00;3.00;;;;;27.88;82.58;98796.31;6303978;27;97702;-64
2023/09/01 14:09:57;;;;;;;;;2.40;2.40;;;;;27.83;81.16;98794.56;6292374;27;97044;-64
2023/09/01 14:13:00;;;;;;;;;3.00;2.75;;;;;27.64;81.87;98798.94;6306908;27;96214;-64
2023/09/01 14:16:05;;;;;;;;;4.50;4.00;;;;;27.42;82.36;98791.69;6284562;27;98654;-64
2023/09/01 14:19:08;;;;;;;;;4.00;3.00;;;;;27.48;85.19;98798.66;6263061;27;96859;-65
2023/09/01 14:22:11;;;;;;;;;4.00;4.00;;;;;27.36;83.85;98809.66;6274966;27;97232;-65
2023/09/01 14:25:14;;;;;;;;;6.00;5.00;;;;;27.25;82.08;98808.41;6277237;27;96940;-64